sensor_id;sensor_type;location;lat;lon;timestamp;P1;durP1;ratioP1;P2;durP2;ratioP2
5762;SDS011;2906;53.282;9.508;2023-04-24T00:00:38;21.73;;;9.95;;
5762;SDS011;2906;53.282;9.508;2023-04-24T00:01:42;23.75;;;10.88;;
5762;SDS011;2906;53.282;9.508;2023-04-24T00:02:45;20.30;;;9.18;;
5762;SDS011;2906;53.282;9.508;2023-04-24T00:03:48;19.85;;;9.25;;
5762;SDS011;2906;53.282;9.508;2023-04-24T00:04:50;19.77;;;10.32;;
5762;SDS011;2906;53.282;9.508;2023-04-24T00:05:54;22.52;;;10.82;;
5762;SDS011;2906;53.282;9.508;2023-04-24T00:06:56;23.00;;;9.75;;
5762;SDS011;2906;53.282;9.508;2023-04-24T00:08:02;21.52;;;9.55;;
5762;SDS011;2906;53.282;9.508;2023-04-24T00:09:04;20.52;;;9.45;;
5762;SDS011;2906;53.282;9.508;2023-04-24T00:10:10;18.60;;;9.45;;
5762;SDS011;2906;53.282;9.508;2023-04-24T00:11:11;19.35;;;9.20;;
5762;SDS011;2906;53.282;9.508;2023-04-24T00:12:15;24.52;;;10.00;;
5762;SDS011;2906;53.282;9.508;2023-04-24T00:13:16;25.42;;;10.30;;
5762;SDS011;2906;53.282;9.508;2023-04-24T00:14:20;19.92;;;9.90;;
5762;SDS011;2906;53.282;9.508;2023-04-24T00:15:22;20.63;;;9.95;;
5762;SDS011;2906;53.282;9.508;2023-04-24T00:16:25;20.70;;;10.20;;
5762;SDS011;2906;53.282;9.508;2023-04-24T00:17:28;20.33;;;10.52;;
5762;SDS011;2906;53.282;9.508;2023-04-24T00:18:32;23.08;;;10.73;;
5762;SDS011;2906;53.282;9.508;2023-04-24T00:19:34;22.13;;;10.35;;
5762;SDS011;2906;53.282;9.508;2023-04-24T00:20:36;24.05;;;10.50;;
5762;SDS011;2906;53.282;9.508;2023-04-24T00:21:39;22.67;;;10.93;;
5762;SDS011;2906;53.282;9.508;2023-04-24T00:22:43;21.42;;;9.55;;
5762;SDS011;2906;53.282;9.508;2023-04-24T00:23:47;20.55;;;10.23;;
5762;SDS011;2906;53.282;9.508;2023-04-24T00:24:50;24.77;;;10.25;;
5762;SDS011;2906;53.282;9.508;2023-04-24T00:25:52;21.00;;;10.25;;
5762;SDS011;2906;53.282;9.508;2023-04-24T00:26:55;22.30;;;10.85;;
5762;SDS011;2906;53.282;9.508;2023-04-24T00:27:57;21.10;;;10.55;;
5762;SDS011;2906;53.282;9.508;2023-04-24T00:29:01;19.75;;;10.30;;
5762;SDS011;2906;53.282;9.508;2023-04-24T00:30:03;21.83;;;10.80;;
5762;SDS011;2906;53.282;9.508;2023-04-24T00:31:08;24.20;;;10.93;;
5762;SDS011;2906;53.282;9.508;2023-04-24T00:32:11;21.83;;;10.80;;
5762;SDS011;2906;53.282;9.508;2023-04-24T00:33:15;19.50;;;10.25;;
5762;SDS011;2906;53.282;9.508;2023-04-24T00:34:16;21.00;;;10.90;;
5762;SDS011;2906;53.282;9.508;2023-04-24T00:35:21;20.58;;;10.15;;
5762;SDS011;2906;53.282;9.508;2023-04-24T00:36:23;20.90;;;10.52;;
5762;SDS011;2906;53.282;9.508;2023-04-24T00:37:27;21.45;;;11.13;;
5762;SDS011;2906;53.282;9.508;2023-04-24T00:38:30;20.05;;;10.00;;
5762;SDS011;2906;53.282;9.508;2023-04-24T00:39:33;22.85;;;10.35;;
5762;SDS011;2906;53.282;9.508;2023-04-24T00:40:36;20.73;;;9.63;;
5762;SDS011;2906;53.282;9.508;2023-04-24T00:41:40;20.90;;;10.05;;
5762;SDS011;2906;53.282;9.508;2023-04-24T00:42:43;21.13;;;10.63;;
5762;SDS011;2906;53.282;9.508;2023-04-24T00:43:46;19.50;;;9.45;;
5762;SDS011;2906;53.282;9.508;2023-04-24T00:44:50;21.83;;;9.98;;
5762;SDS011;2906;53.282;9.508;2023-04-24T00:45:54;20.77;;;9.63;;
5762;SDS011;2906;53.282;9.508;2023-04-24T00:46:57;20.92;;;10.40;;
5762;SDS011;2906;53.282;9.508;2023-04-24T00:48:01;20.05;;;9.70;;
5762;SDS011;2906;53.282;9.508;2023-04-24T00:49:03;18.67;;;9.52;;
5762;SDS011;2906;53.282;9.508;2023-04-24T00:50:06;19.63;;;9.77;;
5762;SDS011;2906;53.282;9.508;2023-04-24T00:51:09;23.63;;;9.52;;
5762;SDS011;2906;53.282;9.508;2023-04-24T00:52:12;19.23;;;9.88;;
5762;SDS011;2906;53.282;9.508;2023-04-24T00:53:18;18.98;;;9.00;;
5762;SDS011;2906;53.282;9.508;2023-04-24T00:54:20;21.15;;;8.60;;
5762;SDS011;2906;53.282;9.508;2023-04-24T00:55:24;20.25;;;9.32;;
5762;SDS011;2906;53.282;9.508;2023-04-24T00:56:27;19.75;;;10.23;;
5762;SDS011;2906;53.282;9.508;2023-04-24T00:57:29;18.92;;;9.18;;
5762;SDS011;2906;53.282;9.508;2023-04-24T00:58:31;17.55;;;8.40;;
5762;SDS011;2906;53.282;9.508;2023-04-24T00:59:33;22.67;;;8.20;;
5762;SDS011;2906;53.282;9.508;2023-04-24T01:00:36;17.00;;;8.57;;
5762;SDS011;2906;53.282;9.508;2023-04-24T01:01:39;17.10;;;8.43;;
5762;SDS011;2906;53.282;9.508;2023-04-24T01:02:43;20.05;;;8.75;;
5762;SDS011;2906;53.282;9.508;2023-04-24T01:03:46;23.50;;;8.50;;
5762;SDS011;2906;53.282;9.508;2023-04-24T01:04:49;16.33;;;7.70;;
5762;SDS011;2906;53.282;9.508;2023-04-24T01:05:51;18.23;;;8.20;;
5762;SDS011;2906;53.282;9.508;2023-04-24T01:06:55;16.92;;;8.00;;
5762;SDS011;2906;53.282;9.508;2023-04-24T01:07:58;16.90;;;7.90;;
5762;SDS011;2906;53.282;9.508;2023-04-24T01:09:01;16.25;;;7.60;;
5762;SDS011;2906;53.282;9.508;2023-04-24T01:10:04;16.02;;;7.20;;
5762;SDS011;2906;53.282;9.508;2023-04-24T01:11:07;17.05;;;7.22;;
5762;SDS011;2906;53.282;9.508;2023-04-24T01:12:10;15.07;;;6.60;;
5762;SDS011;2906;53.282;9.508;2023-04-24T01:13:13;15.30;;;6.63;;
5762;SDS011;2906;53.282;9.508;2023-04-24T01:14:16;14.73;;;6.13;;
5762;SDS011;2906;53.282;9.508;2023-04-24T01:15:18;15.77;;;6.90;;
5762;SDS011;2906;53.282;9.508;2023-04-24T01:16:21;13.60;;;6.05;;
5762;SDS011;2906;53.282;9.508;2023-04-24T01:17:23;15.90;;;7.15;;
5762;SDS011;2906;53.282;9.508;2023-04-24T01:18:26;13.40;;;5.30;;
5762;SDS011;2906;53.282;9.508;2023-04-24T01:19:29;14.05;;;5.68;;
5762;SDS011;2906;53.282;9.508;2023-04-24T01:20:32;14.77;;;5.43;;
5762;SDS011;2906;53.282;9.508;2023-04-24T01:21:37;12.93;;;5.05;;
5762;SDS011;2906;53.282;9.508;2023-04-24T01:22:41;16.17;;;5.35;;
5762;SDS011;2906;53.282;9.508;2023-04-24T01:23:44;13.80;;;5.22;;
5762;SDS011;2906;53.282;9.508;2023-04-24T01:24:48;13.95;;;5.25;;
5762;SDS011;2906;53.282;9.508;2023-04-24T01:25:52;14.23;;;6.65;;
5762;SDS011;2906;53.282;9.508;2023-04-24T01:26:55;13.05;;;4.75;;
5762;SDS011;2906;53.282;9.508;2023-04-24T01:27:58;11.95;;;4.38;;
5762;SDS011;2906;53.282;9.508;2023-04-24T01:29:03;17.75;;;5.38;;
5762;SDS011;2906;53.282;9.508;2023-04-24T01:30:06;12.70;;;4.53;;
5762;SDS011;2906;53.282;9.508;2023-04-24T01:31:10;12.75;;;4.40;;
5762;SDS011;2906;53.282;9.508;2023-04-24T01:32:14;14.45;;;4.20;;
5762;SDS011;2906;53.282;9.508;2023-04-24T01:33:17;11.48;;;3.30;;
5762;SDS011;2906;53.282;9.508;2023-04-24T01:34:18;14.07;;;6.15;;
5762;SDS011;2906;53.282;9.508;2023-04-24T01:35:21;15.95;;;6.28;;
5762;SDS011;2906;53.282;9.508;2023-04-24T01:36:24;13.95;;;6.35;;
5762;SDS011;2906;53.282;9.508;2023-04-24T01:37:28;12.85;;;5.80;;
5762;SDS011;2906;53.282;9.508;2023-04-24T01:38:33;13.20;;;6.32;;
5762;SDS011;2906;53.282;9.508;2023-04-24T01:39:35;12.75;;;6.05;;
5762;SDS011;2906;53.282;9.508;2023-04-24T01:40:39;11.18;;;3.80;;
5762;SDS011;2906;53.282;9.508;2023-04-24T01:41:41;13.65;;;5.50;;
5762;SDS011;2906;53.282;9.508;2023-04-24T01:42:44;13.45;;;5.65;;
5762;SDS011;2906;53.282;9.508;2023-04-24T01:43:47;11.95;;;5.30;;
5762;SDS011;2906;53.282;9.508;2023-04-24T01:44:51;13.27;;;5.35;;
5762;SDS011;2906;53.282;9.508;2023-04-24T01:45:54;11.05;;;4.45;;
5762;SDS011;2906;53.282;9.508;2023-04-24T01:46:57;14.60;;;2.90;;
5762;SDS011;2906;53.282;9.508;2023-04-24T01:48:00;12.23;;;4.40;;
5762;SDS011;2906;53.282;9.508;2023-04-24T01:49:03;10.38;;;3.90;;
5762;SDS011;2906;53.282;9.508;2023-04-24T01:50:06;10.02;;;2.47;;
5762;SDS011;2906;53.282;9.508;2023-04-24T01:51:10;12.93;;;3.03;;
5762;SDS011;2906;53.282;9.508;2023-04-24T01:52:11;10.15;;;2.58;;
5762;SDS011;2906;53.282;9.508;2023-04-24T01:53:15;11.18;;;3.45;;
5762;SDS011;2906;53.282;9.508;2023-04-24T01:54:18;10.20;;;2.60;;
5762;SDS011;2906;53.282;9.508;2023-04-24T01:55:20;9.40;;;1.90;;
5762;SDS011;2906;53.282;9.508;2023-04-24T01:56:22;10.98;;;2.28;;
5762;SDS011;2906;53.282;9.508;2023-04-24T01:57:25;9.90;;;2.22;;
5762;SDS011;2906;53.282;9.508;2023-04-24T01:58:27;12.25;;;2.25;;
5762;SDS011;2906;53.282;9.508;2023-04-24T01:59:29;9.95;;;2.17;;
5762;SDS011;2906;53.282;9.508;2023-04-24T02:00:34;9.02;;;1.90;;
5762;SDS011;2906;53.282;9.508;2023-04-24T02:01:38;12.27;;;2.20;;
5762;SDS011;2906;53.282;9.508;2023-04-24T02:02:40;9.52;;;1.90;;
5762;SDS011;2906;53.282;9.508;2023-04-24T02:03:43;9.35;;;1.85;;
5762;SDS011;2906;53.282;9.508;2023-04-24T02:04:45;10.05;;;2.10;;
5762;SDS011;2906;53.282;9.508;2023-04-24T02:05:50;10.25;;;2.50;;
5762;SDS011;2906;53.282;9.508;2023-04-24T02:06:53;10.38;;;2.13;;
5762;SDS011;2906;53.282;9.508;2023-04-24T02:07:56;10.13;;;2.00;;
5762;SDS011;2906;53.282;9.508;2023-04-24T02:08:59;9.70;;;2.30;;
5762;SDS011;2906;53.282;9.508;2023-04-24T02:10:04;9.50;;;2.22;;
5762;SDS011;2906;53.282;9.508;2023-04-24T02:11:09;10.57;;;2.53;;
5762;SDS011;2906;53.282;9.508;2023-04-24T02:12:13;10.10;;;2.25;;
5762;SDS011;2906;53.282;9.508;2023-04-24T02:13:16;10.93;;;2.33;;
5762;SDS011;2906;53.282;9.508;2023-04-24T02:14:19;10.40;;;2.40;;
5762;SDS011;2906;53.282;9.508;2023-04-24T02:15:22;10.45;;;2.30;;
5762;SDS011;2906;53.282;9.508;2023-04-24T02:16:25;10.30;;;2.33;;
5762;SDS011;2906;53.282;9.508;2023-04-24T02:17:28;11.38;;;2.55;;
5762;SDS011;2906;53.282;9.508;2023-04-24T02:18:33;11.45;;;2.50;;
5762;SDS011;2906;53.282;9.508;2023-04-24T02:19:36;10.50;;;2.67;;
5762;SDS011;2906;53.282;9.508;2023-04-24T02:20:41;12.18;;;2.58;;
5762;SDS011;2906;53.282;9.508;2023-04-24T02:21:43;10.27;;;2.88;;
5762;SDS011;2906;53.282;9.508;2023-04-24T02:22:48;11.85;;;2.95;;
5762;SDS011;2906;53.282;9.508;2023-04-24T02:23:50;9.95;;;2.72;;
5762;SDS011;2906;53.282;9.508;2023-04-24T02:24:52;11.82;;;3.20;;
5762;SDS011;2906;53.282;9.508;2023-04-24T02:25:56;11.85;;;2.83;;
5762;SDS011;2906;53.282;9.508;2023-04-24T02:27:00;9.55;;;2.50;;
5762;SDS011;2906;53.282;9.508;2023-04-24T02:28:03;10.35;;;2.90;;
5762;SDS011;2906;53.282;9.508;2023-04-24T02:29:06;10.60;;;2.80;;
5762;SDS011;2906;53.282;9.508;2023-04-24T02:30:09;12.68;;;3.42;;
5762;SDS011;2906;53.282;9.508;2023-04-24T02:31:14;10.43;;;2.83;;
5762;SDS011;2906;53.282;9.508;2023-04-24T02:32:15;11.35;;;2.92;;
5762;SDS011;2906;53.282;9.508;2023-04-24T02:33:19;11.75;;;2.80;;
5762;SDS011;2906;53.282;9.508;2023-04-24T02:34:21;9.80;;;2.70;;
5762;SDS011;2906;53.282;9.508;2023-04-24T02:35:25;10.48;;;2.78;;
5762;SDS011;2906;53.282;9.508;2023-04-24T02:36:26;10.15;;;2.80;;
5762;SDS011;2906;53.282;9.508;2023-04-24T02:37:30;10.32;;;2.85;;
5762;SDS011;2906;53.282;9.508;2023-04-24T02:38:33;11.00;;;3.00;;
5762;SDS011;2906;53.282;9.508;2023-04-24T02:39:36;10.48;;;3.05;;
5762;SDS011;2906;53.282;9.508;2023-04-24T02:40:39;9.45;;;2.45;;
5762;SDS011;2906;53.282;9.508;2023-04-24T02:41:44;12.85;;;3.20;;
5762;SDS011;2906;53.282;9.508;2023-04-24T02:42:46;13.00;;;3.30;;
5762;SDS011;2906;53.282;9.508;2023-04-24T02:43:50;12.25;;;3.20;;
5762;SDS011;2906;53.282;9.508;2023-04-24T02:44:52;11.32;;;2.70;;
5762;SDS011;2906;53.282;9.508;2023-04-24T02:45:56;13.95;;;2.88;;
5762;SDS011;2906;53.282;9.508;2023-04-24T02:46:59;10.25;;;2.65;;
5762;SDS011;2906;53.282;9.508;2023-04-24T02:48:02;13.05;;;3.88;;
5762;SDS011;2906;53.282;9.508;2023-04-24T02:49:04;12.43;;;4.40;;
5762;SDS011;2906;53.282;9.508;2023-04-24T02:50:07;12.13;;;4.35;;
5762;SDS011;2906;53.282;9.508;2023-04-24T02:51:09;11.75;;;4.22;;
5762;SDS011;2906;53.282;9.508;2023-04-24T02:52:12;11.15;;;3.75;;
5762;SDS011;2906;53.282;9.508;2023-04-24T02:53:14;10.52;;;4.18;;
5762;SDS011;2906;53.282;9.508;2023-04-24T02:54:19;11.10;;;3.13;;
5762;SDS011;2906;53.282;9.508;2023-04-24T02:55:21;10.00;;;2.60;;
5762;SDS011;2906;53.282;9.508;2023-04-24T02:56:26;10.05;;;2.60;;
5762;SDS011;2906;53.282;9.508;2023-04-24T02:57:28;9.55;;;2.80;;
5762;SDS011;2906;53.282;9.508;2023-04-24T02:58:30;10.60;;;2.55;;
5762;SDS011;2906;53.282;9.508;2023-04-24T02:59:32;10.70;;;2.45;;
5762;SDS011;2906;53.282;9.508;2023-04-24T03:00:35;11.27;;;2.60;;
5762;SDS011;2906;53.282;9.508;2023-04-24T03:01:37;10.70;;;2.40;;
5762;SDS011;2906;53.282;9.508;2023-04-24T03:02:40;8.85;;;1.90;;
5762;SDS011;2906;53.282;9.508;2023-04-24T03:03:42;9.70;;;2.58;;
5762;SDS011;2906;53.282;9.508;2023-04-24T03:04:44;9.82;;;2.40;;
5762;SDS011;2906;53.282;9.508;2023-04-24T03:05:48;10.30;;;2.72;;
5762;SDS011;2906;53.282;9.508;2023-04-24T03:06:51;9.25;;;2.20;;
5762;SDS011;2906;53.282;9.508;2023-04-24T03:07:55;9.90;;;2.50;;
5762;SDS011;2906;53.282;9.508;2023-04-24T03:08:58;11.40;;;2.50;;
5762;SDS011;2906;53.282;9.508;2023-04-24T03:10:00;9.80;;;2.70;;
5762;SDS011;2906;53.282;9.508;2023-04-24T03:11:04;9.63;;;2.35;;
5762;SDS011;2906;53.282;9.508;2023-04-24T03:12:07;11.40;;;3.30;;
5762;SDS011;2906;53.282;9.508;2023-04-24T03:13:13;10.30;;;3.50;;
5762;SDS011;2906;53.282;9.508;2023-04-24T03:14:15;9.70;;;3.20;;
5762;SDS011;2906;53.282;9.508;2023-04-24T03:15:18;9.18;;;2.17;;
5762;SDS011;2906;53.282;9.508;2023-04-24T03:16:21;10.70;;;3.08;;
5762;SDS011;2906;53.282;9.508;2023-04-24T03:17:25;9.40;;;2.42;;
5762;SDS011;2906;53.282;9.508;2023-04-24T03:18:28;21.73;;;2.72;;
5762;SDS011;2906;53.282;9.508;2023-04-24T03:19:32;9.85;;;2.80;;
5762;SDS011;2906;53.282;9.508;2023-04-24T03:20:34;10.25;;;2.53;;
5762;SDS011;2906;53.282;9.508;2023-04-24T03:21:38;9.80;;;2.50;;
5762;SDS011;2906;53.282;9.508;2023-04-24T03:22:41;12.23;;;3.13;;
5762;SDS011;2906;53.282;9.508;2023-04-24T03:23:44;9.93;;;2.65;;
5762;SDS011;2906;53.282;9.508;2023-04-24T03:24:45;10.07;;;3.10;;
5762;SDS011;2906;53.282;9.508;2023-04-24T03:25:50;9.80;;;2.40;;
5762;SDS011;2906;53.282;9.508;2023-04-24T03:26:52;11.95;;;2.65;;
5762;SDS011;2906;53.282;9.508;2023-04-24T03:27:56;11.73;;;3.38;;
5762;SDS011;2906;53.282;9.508;2023-04-24T03:29:01;9.98;;;2.65;;
5762;SDS011;2906;53.282;9.508;2023-04-24T03:30:06;12.00;;;2.70;;
5762;SDS011;2906;53.282;9.508;2023-04-24T03:31:09;12.27;;;2.85;;
5762;SDS011;2906;53.282;9.508;2023-04-24T03:32:15;9.13;;;2.60;;
5762;SDS011;2906;53.282;9.508;2023-04-24T03:33:18;11.50;;;2.53;;
5762;SDS011;2906;53.282;9.508;2023-04-24T03:34:22;10.23;;;2.75;;
5762;SDS011;2906;53.282;9.508;2023-04-24T03:35:25;9.25;;;2.75;;
5762;SDS011;2906;53.282;9.508;2023-04-24T03:36:28;9.48;;;2.63;;
5762;SDS011;2906;53.282;9.508;2023-04-24T03:37:31;9.82;;;2.15;;
5762;SDS011;2906;53.282;9.508;2023-04-24T03:38:33;9.80;;;2.95;;
5762;SDS011;2906;53.282;9.508;2023-04-24T03:39:36;11.02;;;2.67;;
5762;SDS011;2906;53.282;9.508;2023-04-24T03:40:39;11.20;;;2.70;;
5762;SDS011;2906;53.282;9.508;2023-04-24T03:41:41;9.25;;;2.45;;
5762;SDS011;2906;53.282;9.508;2023-04-24T03:42:43;10.75;;;2.50;;
5762;SDS011;2906;53.282;9.508;2023-04-24T03:43:46;10.30;;;2.70;;
5762;SDS011;2906;53.282;9.508;2023-04-24T03:44:50;11.40;;;3.28;;
5762;SDS011;2906;53.282;9.508;2023-04-24T03:45:53;10.60;;;2.83;;
5762;SDS011;2906;53.282;9.508;2023-04-24T03:46:54;9.25;;;2.60;;
5762;SDS011;2906;53.282;9.508;2023-04-24T03:47:57;9.43;;;2.72;;
5762;SDS011;2906;53.282;9.508;2023-04-24T03:48:58;10.88;;;2.20;;
5762;SDS011;2906;53.282;9.508;2023-04-24T03:50:01;12.07;;;4.35;;
5762;SDS011;2906;53.282;9.508;2023-04-24T03:51:02;10.05;;;3.45;;
5762;SDS011;2906;53.282;9.508;2023-04-24T03:52:06;10.65;;;4.10;;
5762;SDS011;2906;53.282;9.508;2023-04-24T03:53:07;9.65;;;3.60;;
5762;SDS011;2906;53.282;9.508;2023-04-24T03:54:10;10.65;;;3.50;;
5762;SDS011;2906;53.282;9.508;2023-04-24T03:55:13;10.23;;;3.67;;
5762;SDS011;2906;53.282;9.508;2023-04-24T03:56:16;11.68;;;3.80;;
5762;SDS011;2906;53.282;9.508;2023-04-24T03:57:17;9.95;;;3.30;;
5762;SDS011;2906;53.282;9.508;2023-04-24T03:58:21;10.10;;;3.50;;
5762;SDS011;2906;53.282;9.508;2023-04-24T03:59:22;11.18;;;3.65;;
5762;SDS011;2906;53.282;9.508;2023-04-24T04:00:26;10.50;;;4.15;;
5762;SDS011;2906;53.282;9.508;2023-04-24T04:01:28;12.07;;;3.50;;
5762;SDS011;2906;53.282;9.508;2023-04-24T04:02:31;11.10;;;3.55;;
5762;SDS011;2906;53.282;9.508;2023-04-24T04:03:32;10.52;;;3.65;;
5762;SDS011;2906;53.282;9.508;2023-04-24T04:04:35;11.82;;;2.75;;
5762;SDS011;2906;53.282;9.508;2023-04-24T04:05:37;10.45;;;4.45;;
5762;SDS011;2906;53.282;9.508;2023-04-24T04:06:39;8.98;;;2.22;;
5762;SDS011;2906;53.282;9.508;2023-04-24T04:07:41;10.40;;;3.38;;
5762;SDS011;2906;53.282;9.508;2023-04-24T04:08:43;9.52;;;2.85;;
5762;SDS011;2906;53.282;9.508;2023-04-24T04:09:45;10.02;;;2.85;;
5762;SDS011;2906;53.282;9.508;2023-04-24T04:10:48;10.35;;;3.42;;
5762;SDS011;2906;53.282;9.508;2023-04-24T04:11:50;10.75;;;3.15;;
5762;SDS011;2906;53.282;9.508;2023-04-24T04:12:54;9.60;;;3.38;;
5762;SDS011;2906;53.282;9.508;2023-04-24T04:13:56;10.07;;;2.20;;
5762;SDS011;2906;53.282;9.508;2023-04-24T04:14:59;9.18;;;2.10;;
5762;SDS011;2906;53.282;9.508;2023-04-24T04:16:03;8.77;;;1.92;;
5762;SDS011;2906;53.282;9.508;2023-04-24T04:17:05;10.70;;;4.60;;
5762;SDS011;2906;53.282;9.508;2023-04-24T04:18:08;10.00;;;4.35;;
5762;SDS011;2906;53.282;9.508;2023-04-24T04:19:11;10.40;;;4.32;;
5762;SDS011;2906;53.282;9.508;2023-04-24T04:20:13;12.13;;;4.45;;
5762;SDS011;2906;53.282;9.508;2023-04-24T04:21:16;11.88;;;5.28;;
5762;SDS011;2906;53.282;9.508;2023-04-24T04:22:19;11.57;;;5.03;;
5762;SDS011;2906;53.282;9.508;2023-04-24T04:23:22;12.65;;;5.30;;
5762;SDS011;2906;53.282;9.508;2023-04-24T04:24:24;9.65;;;4.15;;
5762;SDS011;2906;53.282;9.508;2023-04-24T04:25:26;9.98;;;4.15;;
5762;SDS011;2906;53.282;9.508;2023-04-24T04:26:27;11.93;;;4.80;;
5762;SDS011;2906;53.282;9.508;2023-04-24T04:27:38;12.18;;;3.90;;
5762;SDS011;2906;53.282;9.508;2023-04-24T04:28:41;11.57;;;2.65;;
5762;SDS011;2906;53.282;9.508;2023-04-24T04:29:45;10.13;;;3.63;;
5762;SDS011;2906;53.282;9.508;2023-04-24T04:30:47;9.45;;;3.30;;
5762;SDS011;2906;53.282;9.508;2023-04-24T04:31:55;11.90;;;4.18;;
5762;SDS011;2906;53.282;9.508;2023-04-24T04:32:57;9.52;;;3.67;;
5762;SDS011;2906;53.282;9.508;2023-04-24T04:34:01;9.95;;;3.72;;
5762;SDS011;2906;53.282;9.508;2023-04-24T04:35:03;8.90;;;1.83;;
5762;SDS011;2906;53.282;9.508;2023-04-24T04:36:07;9.27;;;1.83;;
5762;SDS011;2906;53.282;9.508;2023-04-24T04:37:09;9.02;;;2.00;;
5762;SDS011;2906;53.282;9.508;2023-04-24T04:38:13;12.48;;;2.20;;
5762;SDS011;2906;53.282;9.508;2023-04-24T04:39:15;9.52;;;1.90;;
5762;SDS011;2906;53.282;9.508;2023-04-24T04:40:19;10.20;;;4.55;;
5762;SDS011;2906;53.282;9.508;2023-04-24T04:41:22;9.70;;;3.75;;
5762;SDS011;2906;53.282;9.508;2023-04-24T04:42:25;10.07;;;4.18;;
5762;SDS011;2906;53.282;9.508;2023-04-24T04:43:29;10.48;;;4.30;;
5762;SDS011;2906;53.282;9.508;2023-04-24T04:44:31;10.30;;;4.03;;
5762;SDS011;2906;53.282;9.508;2023-04-24T04:45:36;9.48;;;3.47;;
5762;SDS011;2906;53.282;9.508;2023-04-24T04:46:39;8.95;;;1.75;;
5762;SDS011;2906;53.282;9.508;2023-04-24T04:47:43;10.00;;;4.10;;
5762;SDS011;2906;53.282;9.508;2023-04-24T04:48:46;9.65;;;3.60;;
5762;SDS011;2906;53.282;9.508;2023-04-24T04:49:49;9.05;;;3.60;;
5762;SDS011;2906;53.282;9.508;2023-04-24T04:50:52;11.25;;;4.13;;
5762;SDS011;2906;53.282;9.508;2023-04-24T04:51:55;10.10;;;3.70;;
5762;SDS011;2906;53.282;9.508;2023-04-24T04:52:57;10.80;;;4.47;;
5762;SDS011;2906;53.282;9.508;2023-04-24T04:54:01;11.65;;;3.83;;
5762;SDS011;2906;53.282;9.508;2023-04-24T04:55:06;10.52;;;3.55;;
5762;SDS011;2906;53.282;9.508;2023-04-24T04:57:26;9.40;;;1.77;;
5762;SDS011;2906;53.282;9.508;2023-04-24T04:59:44;11.05;;;1.70;;
5762;SDS011;2906;53.282;9.508;2023-04-24T05:00:46;10.68;;;1.90;;
5762;SDS011;2906;53.282;9.508;2023-04-24T05:01:48;10.35;;;4.60;;
5762;SDS011;2906;53.282;9.508;2023-04-24T05:04:08;7.95;;;1.60;;
5762;SDS011;2906;53.282;9.508;2023-04-24T05:05:09;8.45;;;1.38;;
5762;SDS011;2906;53.282;9.508;2023-04-24T05:06:11;10.18;;;1.83;;
5762;SDS011;2906;53.282;9.508;2023-04-24T05:07:13;8.10;;;1.52;;
5762;SDS011;2906;53.282;9.508;2023-04-24T05:08:16;9.10;;;1.45;;
5762;SDS011;2906;53.282;9.508;2023-04-24T05:09:20;11.55;;;6.85;;
5762;SDS011;2906;53.282;9.508;2023-04-24T05:10:27;10.25;;;1.80;;
5762;SDS011;2906;53.282;9.508;2023-04-24T05:11:30;8.88;;;1.63;;
5762;SDS011;2906;53.282;9.508;2023-04-24T05:12:35;9.00;;;1.55;;
5762;SDS011;2906;53.282;9.508;2023-04-24T05:13:36;16.63;;;5.72;;
5762;SDS011;2906;53.282;9.508;2023-04-24T05:14:40;11.32;;;5.55;;
5762;SDS011;2906;53.282;9.508;2023-04-24T05:15:43;10.90;;;2.10;;
5762;SDS011;2906;53.282;9.508;2023-04-24T05:16:46;8.80;;;1.75;;
5762;SDS011;2906;53.282;9.508;2023-04-24T05:17:50;9.40;;;1.55;;
5762;SDS011;2906;53.282;9.508;2023-04-24T05:18:51;9.30;;;1.90;;
5762;SDS011;2906;53.282;9.508;2023-04-24T05:19:56;12.32;;;1.75;;
5762;SDS011;2906;53.282;9.508;2023-04-24T05:20:58;12.23;;;5.95;;
5762;SDS011;2906;53.282;9.508;2023-04-24T05:22:00;11.40;;;5.20;;
5762;SDS011;2906;53.282;9.508;2023-04-24T05:23:03;9.63;;;1.85;;
5762;SDS011;2906;53.282;9.508;2023-04-24T05:24:06;11.45;;;1.70;;
5762;SDS011;2906;53.282;9.508;2023-04-24T05:25:08;10.00;;;1.70;;
5762;SDS011;2906;53.282;9.508;2023-04-24T05:26:13;11.05;;;5.25;;
5762;SDS011;2906;53.282;9.508;2023-04-24T05:27:14;11.60;;;5.80;;
5762;SDS011;2906;53.282;9.508;2023-04-24T05:28:17;11.80;;;4.85;;
5762;SDS011;2906;53.282;9.508;2023-04-24T05:29:19;10.43;;;4.57;;
5762;SDS011;2906;53.282;9.508;2023-04-24T05:30:21;12.00;;;4.85;;
5762;SDS011;2906;53.282;9.508;2023-04-24T05:31:24;10.45;;;1.35;;
5762;SDS011;2906;53.282;9.508;2023-04-24T05:32:26;12.10;;;5.85;;
5762;SDS011;2906;53.282;9.508;2023-04-24T05:33:28;10.27;;;4.55;;
5762;SDS011;2906;53.282;9.508;2023-04-24T05:34:31;11.10;;;4.20;;
5762;SDS011;2906;53.282;9.508;2023-04-24T05:35:35;10.63;;;4.50;;
5762;SDS011;2906;53.282;9.508;2023-04-24T05:36:38;10.05;;;3.67;;
5762;SDS011;2906;53.282;9.508;2023-04-24T05:37:40;10.27;;;4.10;;
5762;SDS011;2906;53.282;9.508;2023-04-24T05:38:42;11.02;;;4.40;;
5762;SDS011;2906;53.282;9.508;2023-04-24T05:39:44;11.35;;;4.82;;
5762;SDS011;2906;53.282;9.508;2023-04-24T05:40:47;10.07;;;2.00;;
5762;SDS011;2906;53.282;9.508;2023-04-24T05:41:49;9.05;;;2.30;;
5762;SDS011;2906;53.282;9.508;2023-04-24T05:42:52;9.30;;;2.20;;
5762;SDS011;2906;53.282;9.508;2023-04-24T05:43:54;9.13;;;1.90;;
5762;SDS011;2906;53.282;9.508;2023-04-24T05:44:59;9.45;;;1.88;;
5762;SDS011;2906;53.282;9.508;2023-04-24T05:46:01;9.00;;;1.90;;
5762;SDS011;2906;53.282;9.508;2023-04-24T05:47:04;10.50;;;2.42;;
5762;SDS011;2906;53.282;9.508;2023-04-24T05:48:06;8.35;;;2.38;;
5762;SDS011;2906;53.282;9.508;2023-04-24T05:49:09;9.65;;;2.58;;
5762;SDS011;2906;53.282;9.508;2023-04-24T05:50:11;10.27;;;2.30;;
5762;SDS011;2906;53.282;9.508;2023-04-24T05:51:16;9.07;;;1.90;;
5762;SDS011;2906;53.282;9.508;2023-04-24T05:52:18;11.85;;;2.63;;
5762;SDS011;2906;53.282;9.508;2023-04-24T05:53:21;9.30;;;2.20;;
5762;SDS011;2906;53.282;9.508;2023-04-24T05:54:23;11.30;;;4.78;;
5762;SDS011;2906;53.282;9.508;2023-04-24T05:55:26;11.88;;;4.80;;
5762;SDS011;2906;53.282;9.508;2023-04-24T05:56:28;12.70;;;4.65;;
5762;SDS011;2906;53.282;9.508;2023-04-24T05:57:31;11.98;;;4.35;;
5762;SDS011;2906;53.282;9.508;2023-04-24T05:58:33;11.90;;;4.45;;
5762;SDS011;2906;53.282;9.508;2023-04-24T05:59:36;12.98;;;4.40;;
5762;SDS011;2906;53.282;9.508;2023-04-24T06:00:38;13.35;;;4.18;;
5762;SDS011;2906;53.282;9.508;2023-04-24T06:01:42;11.10;;;2.20;;
5762;SDS011;2906;53.282;9.508;2023-04-24T06:02:46;11.68;;;2.60;;
5762;SDS011;2906;53.282;9.508;2023-04-24T06:03:48;11.65;;;2.50;;
5762;SDS011;2906;53.282;9.508;2023-04-24T06:04:50;10.65;;;2.92;;
5762;SDS011;2906;53.282;9.508;2023-04-24T06:05:52;11.15;;;2.60;;
5762;SDS011;2906;53.282;9.508;2023-04-24T06:06:56;11.15;;;4.20;;
5762;SDS011;2906;53.282;9.508;2023-04-24T06:07:58;11.48;;;3.90;;
5762;SDS011;2906;53.282;9.508;2023-04-24T06:09:01;11.40;;;3.00;;
5762;SDS011;2906;53.282;9.508;2023-04-24T06:10:03;12.13;;;3.08;;
5762;SDS011;2906;53.282;9.508;2023-04-24T06:11:07;10.13;;;2.80;;
5762;SDS011;2906;53.282;9.508;2023-04-24T06:12:08;12.45;;;5.10;;
5762;SDS011;2906;53.282;9.508;2023-04-24T06:13:11;10.70;;;2.60;;
5762;SDS011;2906;53.282;9.508;2023-04-24T06:14:13;10.60;;;2.70;;
5762;SDS011;2906;53.282;9.508;2023-04-24T06:15:15;12.00;;;3.00;;
5762;SDS011;2906;53.282;9.508;2023-04-24T06:16:17;11.40;;;2.70;;
5762;SDS011;2906;53.282;9.508;2023-04-24T06:17:20;10.82;;;2.53;;
5762;SDS011;2906;53.282;9.508;2023-04-24T06:18:22;13.10;;;2.80;;
5762;SDS011;2906;53.282;9.508;2023-04-24T06:19:25;10.85;;;2.55;;
5762;SDS011;2906;53.282;9.508;2023-04-24T06:20:27;11.60;;;2.50;;
5762;SDS011;2906;53.282;9.508;2023-04-24T06:21:30;10.10;;;2.33;;
5762;SDS011;2906;53.282;9.508;2023-04-24T06:22:34;10.73;;;3.67;;
5762;SDS011;2906;53.282;9.508;2023-04-24T06:23:36;11.38;;;3.17;;
5762;SDS011;2906;53.282;9.508;2023-04-24T06:24:39;11.35;;;2.75;;
5762;SDS011;2906;53.282;9.508;2023-04-24T06:25:42;10.20;;;2.65;;
5762;SDS011;2906;53.282;9.508;2023-04-24T06:26:44;11.02;;;3.92;;
5762;SDS011;2906;53.282;9.508;2023-04-24T06:27:47;12.05;;;4.20;;
5762;SDS011;2906;53.282;9.508;2023-04-24T06:28:48;12.15;;;4.43;;
5762;SDS011;2906;53.282;9.508;2023-04-24T06:29:53;14.75;;;4.10;;